98AL weather

Lakeland Community Hospital Heliport
Haleyville, Alabama, United States

Public forecast

Using degrees Fahrenheit for public forecast. Weather courtesy of forecast.io.

Closest aviation weather report (METAR) to Lakeland Community Hospital Heliport

Closest report is Posey Field, 2.3 nm (4.3 km) N. Retrieved 2019/10/23 14:56 UTC (20 minutes ago):

K1M4 231456Z AUTO VRB03KT 10SM CLR 15/06 A3023 RMK AO2 SLP749 T01500056 53009

Closest aviation forecast (TAF) to Lakeland Community Hospital Heliport

Closest forecast is Northwest Alabama Regional Airport, 30.2 nm (55.9 km) N. Retrieved 2019/10/23 12:45 UTC (3 hours ago):

TAF KMSL 231142Z 2312/2412 VRB05KT P6SM SKC FM240600 12005KT P6SM FEW250